Time;durP1;ratioP1;P1;durP2;ratioP2;P2;SDS_P1;SDS_P2;PMS_P1;PMS_P2;Temp;Humidity;BMP_temperature;BMP_pressure;BME280_temperature;BME280_humidity;BME280_pressure;Samples;Min_cycle;Max_cycle;Signal;HPM_P1;HPM_P2
2023/11/12 06:00:59;;;;;;;10.27;7.20;;;;;;;;;;5682745;23;20843;-71
2023/11/12 06:03:25;;;;;;;10.33;6.80;;;;;;;;;;4974905;28;20462;-72
2023/11/12 06:05:51;;;;;;;9.47;6.40;;;;;;;;;;4974953;28;20412;-72
2023/11/12 06:08:17;;;;;;;13.80;7.07;;;;;;;;;;4974334;28;20898;-72
2023/11/12 06:10:43;;;;;;;12.30;7.60;;;;;;;;;;4969889;28;21019;-72
2023/11/12 06:13:12;;;;;;;10.40;7.10;;;;;;;;;;4955596;29;20840;-72
2023/11/12 06:15:40;;;;;;;17.30;8.40;;;;;;;;;;4997504;23;20506;-70
2023/11/12 06:18:06;;;;;;;11.20;7.07;;;;;;;;;;4955766;28;20401;-71
2023/11/12 06:20:33;;;;;;;10.50;6.53;;;;;;;;;;4955316;28;20904;-70
2023/11/12 06:22:59;;;;;;;11.87;6.73;;;;;;;;;;4954899;28;20464;-71
2023/11/12 06:25:25;;;;;;;12.60;7.20;;;;;;;;;;4955433;28;20491;-71
2023/11/12 06:27:51;;;;;;;17.53;7.40;;;;;;;;;;4955442;29;20484;-71
2023/11/12 06:30:17;;;;;;;14.70;7.10;;;;;;;;;;4955097;28;20413;-71
2023/11/12 06:32:46;;;;;;;13.80;7.40;;;;;;;;;;4954677;29;20435;-71
2023/11/12 06:35:12;;;;;;;15.53;7.20;;;;;;;;;;4955097;28;20455;-71
2023/11/12 06:37:38;;;;;;;18.53;6.10;;;;;;;;;;4955484;28;20412;-71
2023/11/12 06:40:06;;;;;;;9.97;6.53;;;;;;;;;;4955446;29;20413;-71
2023/11/12 06:42:32;;;;;;;13.10;6.90;;;;;;;;;;4954743;28;20551;-71
2023/11/12 06:44:58;;;;;;;9.93;5.93;;;;;;;;;;4955233;28;20561;-70
2023/11/12 06:47:24;;;;;;;9.03;5.57;;;;;;;;;;4955440;29;20459;-70
2023/11/12 06:49:50;;;;;;;8.10;5.47;;;;;;;;;;4955132;29;20409;-70
2023/11/12 06:52:17;;;;;;;14.10;5.30;;;;;;;;;;4954593;29;20413;-70
2023/11/12 06:54:43;;;;;;;7.13;4.90;;;;;;;;;;4955011;28;20435;-70
2023/11/12 06:57:09;;;;;;;11.83;5.90;;;;;;;;;;4954890;29;20416;-70
2023/11/12 06:59:35;;;;;;;13.80;8.40;;;;;;;;;;4954920;29;20460;-70
2023/11/12 07:02:02;;;;;;;12.30;5.20;;;;;;;;;;4954592;29;20944;-70
2023/11/12 07:04:28;;;;;;;9.03;5.37;;;;;;;;;;4955010;28;20495;-71
2023/11/12 07:06:54;;;;;;;8.27;5.40;;;;;;;;;;4955733;29;20413;-71
2023/11/12 07:09:20;;;;;;;8.33;5.63;;;;;;;;;;4955026;29;20408;-71
2023/11/12 07:11:47;;;;;;;9.70;6.07;;;;;;;;;;4954590;28;20809;-70
2023/11/12 07:14:13;;;;;;;7.10;4.83;;;;;;;;;;4954678;28;20445;-70
2023/11/12 07:16:39;;;;;;;11.17;6.43;;;;;;;;;;4954650;29;20412;-70
2023/11/12 07:19:05;;;;;;;9.80;6.10;;;;;;;;;;4954959;29;20551;-71
2023/11/12 07:21:31;;;;;;;10.70;6.30;;;;;;;;;;4954209;29;20428;-71
2023/11/12 07:23:58;;;;;;;9.53;5.87;;;;;;;;;;4953154;28;20835;-71
2023/11/12 07:26:24;;;;;;;10.00;5.77;;;;;;;;;;4953456;29;20425;-70
2023/11/12 07:28:53;;;;;;;11.83;6.77;;;;;;;;;;4954639;29;20405;-71
2023/11/12 07:31:22;;;;;;;8.23;5.00;;;;;;;;;;4954583;29;20409;-71
2023/11/12 07:33:48;;;;;;;7.63;4.80;;;;;;;;;;4936059;29;20449;-71
2023/11/12 07:36:14;;;;;;;10.97;5.50;;;;;;;;;;4935590;29;20449;-71
2023/11/12 07:38:41;;;;;;;7.80;4.80;;;;;;;;;;4935676;29;20413;-71
2023/11/12 07:41:07;;;;;;;10.23;4.73;;;;;;;;;;4938742;29;20833;-71
2023/11/12 07:43:35;;;;;;;8.77;5.40;;;;;;;;;;4955604;28;20564;-71
2023/11/12 07:46:02;;;;;;;7.93;5.17;;;;;;;;;;4958155;28;20421;-71
2023/11/12 07:48:28;;;;;;;7.03;4.93;;;;;;;;;;4954438;28;20416;-71
2023/11/12 07:50:55;;;;;;;8.77;4.50;;;;;;;;;;4954270;29;20413;-70
2023/11/12 07:53:21;;;;;;;6.73;3.80;;;;;;;;;;4954361;28;20428;-70
2023/11/12 07:55:47;;;;;;;7.50;4.53;;;;;;;;;;4954593;28;20874;-70
2023/11/12 07:58:13;;;;;;;6.63;4.27;;;;;;;;;;4953984;29;20451;-70
2023/11/12 08:00:39;;;;;;;5.70;3.87;;;;;;;;;;4954150;29;20413;-70
2023/11/12 08:03:05;;;;;;;6.00;4.07;;;;;;;;;;4953767;29;20834;-70
2023/11/12 08:05:31;;;;;;;7.60;4.10;;;;;;;;;;4953859;28;20440;-70
2023/11/12 08:07:57;;;;;;;7.43;4.33;;;;;;;;;;4954388;29;20412;-70
2023/11/12 08:10:23;;;;;;;9.70;5.10;;;;;;;;;;4953940;29;20892;-70
2023/11/12 08:12:49;;;;;;;6.40;4.00;;;;;;;;;;4953044;29;20413;-71
2023/11/12 08:15:16;;;;;;;7.40;4.60;;;;;;;;;;4953420;28;20462;-71
2023/11/12 08:17:42;;;;;;;8.50;4.97;;;;;;;;;;4953781;29;20433;-71
2023/11/12 08:20:12;;;;;;;6.47;4.53;;;;;;;;;;4953956;29;20424;-71
2023/11/12 08:22:38;;;;;;;10.50;6.13;;;;;;;;;;4959276;28;20464;-71
2023/11/12 08:25:05;;;;;;;10.13;5.60;;;;;;;;;;4957532;28;20433;-71
2023/11/12 08:27:31;;;;;;;10.90;5.50;;;;;;;;;;4953692;29;20932;-70
2023/11/12 08:29:58;;;;;;;12.53;5.20;;;;;;;;;;4953616;29;20415;-71
2023/11/12 08:32:24;;;;;;;9.50;5.57;;;;;;;;;;4953704;28;20784;-70
2023/11/12 08:34:51;;;;;;;8.33;5.37;;;;;;;;;;4952698;28;20448;-71
2023/11/12 08:37:17;;;;;;;6.20;4.30;;;;;;;;;;4953541;28;20958;-71
2023/11/12 08:39:43;;;;;;;8.73;4.77;;;;;;;;;;4953478;29;20416;-71
2023/11/12 08:42:10;;;;;;;30.50;5.57;;;;;;;;;;4953555;29;20413;-71
2023/11/12 08:44:36;;;;;;;14.17;5.10;;;;;;;;;;4953283;28;20483;-71
2023/11/12 08:47:03;;;;;;;7.80;4.30;;;;;;;;;;4953412;29;20427;-71
2023/11/12 08:49:32;;;;;;;8.70;4.70;;;;;;;;;;4953350;28;20992;-71
2023/11/12 08:51:58;;;;;;;9.20;4.80;;;;;;;;;;4954057;28;20413;-71
2023/11/12 08:54:25;;;;;;;4.23;3.30;;;;;;;;;;4956915;28;20447;-71
2023/11/12 08:56:52;;;;;;;6.40;3.50;;;;;;;;;;4956986;28;20507;-71
2023/11/12 08:59:18;;;;;;;6.70;4.50;;;;;;;;;;4955442;29;20428;-71
2023/11/12 09:01:44;;;;;;;7.47;4.10;;;;;;;;;;4956970;29;20503;-71
2023/11/12 09:04:10;;;;;;;4.67;3.53;;;;;;;;;;4956630;28;20901;-71
2023/11/12 09:06:36;;;;;;;5.63;3.90;;;;;;;;;;4956772;29;20777;-70
2023/11/12 09:09:05;;;;;;;6.90;3.80;;;;;;;;;;4956907;29;20421;-70
2023/11/12 09:11:31;;;;;;;2.90;2.80;;;;;;;;;;4956705;28;20400;-70
2023/11/12 09:14:03;;;;;;;6.67;3.60;;;;;;;;;;4956108;29;20475;-71
2023/11/12 09:16:30;;;;;;;4.00;3.37;;;;;;;;;;4955887;28;20812;-71
2023/11/12 09:18:57;;;;;;;7.50;3.20;;;;;;;;;;4955949;29;20784;-70
2023/11/12 09:21:23;;;;;;;7.20;3.50;;;;;;;;;;4955830;29;20420;-70
2023/11/12 09:23:50;;;;;;;8.03;3.67;;;;;;;;;;4955909;28;20474;-73
2023/11/12 09:26:23;;;;;;;4.50;3.20;;;;;;;;;;4947294;29;20778;-72
2023/11/12 09:28:50;;;;;;;12.70;6.80;;;;;;;;;;4937280;29;21009;-71
2023/11/12 09:31:16;;;;;;;9.93;4.77;;;;;;;;;;4946078;29;20788;-71
2023/11/12 09:33:42;;;;;;;7.17;4.30;;;;;;;;;;4955735;28;20957;-70
2023/11/12 09:36:08;;;;;;;5.37;3.87;;;;;;;;;;4946542;29;20514;-69
2023/11/12 09:38:38;;;;;;;5.50;3.77;;;;;;;;;;4954786;29;20427;-70
2023/11/12 09:41:05;;;;;;;4.43;3.53;;;;;;;;;;4954831;29;20553;-70
2023/11/12 09:43:31;;;;;;;9.70;3.37;;;;;;;;;;4954857;29;20468;-72
2023/11/12 09:45:57;;;;;;;4.77;3.23;;;;;;;;;;4952501;29;20423;-71
2023/11/12 09:48:39;;;;;;;7.10;3.47;;;;;;;;;;4953294;29;20988;-70
2023/11/12 09:51:09;;;;;;;6.03;3.77;;;;;;;;;;4954011;29;20427;-71
2023/11/12 09:53:42;;;;;;;8.53;5.23;;;;;;;;;;4955372;29;20429;-70
2023/11/12 09:56:08;;;;;;;5.90;3.40;;;;;;;;;;4955634;29;20459;-70
2023/11/12 09:58:38;;;;;;;7.17;3.63;;;;;;;;;;4952051;29;20425;-70
2023/11/12 10:01:07;;;;;;;4.93;3.23;;;;;;;;;;4940502;29;20428;-71
2023/11/12 10:03:34;;;;;;;10.00;4.60;;;;;;;;;;4954876;28;20555;-70
2023/11/12 10:06:02;;;;;;;4.50;3.17;;;;;;;;;;4961347;29;20413;-71
2023/11/12 10:08:29;;;;;;;4.80;3.47;;;;;;;;;;4962962;29;20420;-71
2023/11/12 10:11:13;;;;;;;8.00;3.80;;;;;;;;;;4957558;29;20460;-72
2023/11/12 10:13:39;;;;;;;6.53;4.10;;;;;;;;;;4956731;28;20428;-72
2023/11/12 10:16:20;;;;;;;5.10;3.43;;;;;;;;;;4944439;29;20850;-73
2023/11/12 10:18:46;;;;;;;5.37;3.60;;;;;;;;;;4954543;28;20412;-72
2023/11/12 10:21:12;;;;;;;4.87;3.00;;;;;;;;;;4938904;29;20417;-72
2023/11/12 10:23:38;;;;;;;4.90;3.80;;;;;;;;;;4948953;28;20767;-73
2023/11/12 10:26:11;;;;;;;8.93;4.90;;;;;;;;;;4954115;28;20460;-73
2023/11/12 10:28:37;;;;;;;4.53;3.17;;;;;;;;;;4955935;28;20479;-78
2023/11/12 10:31:03;;;;;;;3.90;2.53;;;;;;;;;;4951955;28;20512;-73
2023/11/12 10:33:29;;;;;;;4.20;3.43;;;;;;;;;;4940123;28;20421;-72
2023/11/12 10:35:56;;;;;;;4.50;3.20;;;;;;;;;;4943069;29;20556;-72
2023/11/12 10:38:23;;;;;;;9.90;3.63;;;;;;;;;;4936243;29;20414;-72
2023/11/12 10:40:57;;;;;;;6.57;3.30;;;;;;;;;;4944739;29;20432;-73
2023/11/12 10:43:23;;;;;;;5.70;3.00;;;;;;;;;;4954648;29;20471;-73
2023/11/12 10:45:50;;;;;;;6.20;3.20;;;;;;;;;;4955284;28;21014;-72
2023/11/12 10:48:16;;;;;;;10.83;4.17;;;;;;;;;;4955715;29;20508;-72
2023/11/12 10:50:44;;;;;;;7.10;3.57;;;;;;;;;;4954678;29;20921;-71
2023/11/12 10:53:10;;;;;;;4.60;3.47;;;;;;;;;;4954201;28;20944;-72
2023/11/12 10:55:36;;;;;;;6.87;3.30;;;;;;;;;;4950414;28;20442;-72
2023/11/12 10:58:03;;;;;;;7.97;3.40;;;;;;;;;;4948039;29;20417;-72
2023/11/12 11:00:29;;;;;;;5.40;3.23;;;;;;;;;;4954991;29;20409;-72
2023/11/12 11:02:58;;;;;;;4.87;3.30;;;;;;;;;;4943528;29;20464;-71
2023/11/12 11:05:24;;;;;;;4.50;3.60;;;;;;;;;;4948455;28;20951;-72
2023/11/12 11:07:50;;;;;;;6.73;3.80;;;;;;;;;;4946692;28;20505;-72
2023/11/12 11:10:16;;;;;;;5.17;3.67;;;;;;;;;;4952892;29;20515;-73
2023/11/12 11:12:43;;;;;;;4.70;3.50;;;;;;;;;;4950169;29;20451;-70
2023/11/12 11:15:27;;;;;;;10.90;3.50;;;;;;;;;;4953554;28;20460;-72
2023/11/12 11:17:53;;;;;;;8.50;3.80;;;;;;;;;;4949287;28;20456;-71
2023/11/12 11:20:19;;;;;;;5.97;3.73;;;;;;;;;;4948326;29;20456;-71
2023/11/12 11:22:45;;;;;;;7.33;4.00;;;;;;;;;;4954122;28;20523;-71
2023/11/12 11:25:22;;;;;;;4.50;3.83;;;;;;;;;;4953265;28;20436;-72
2023/11/12 11:27:50;;;;;;;8.50;3.90;;;;;;;;;;4946849;29;20577;-71
2023/11/12 11:30:16;;;;;;;4.47;3.27;;;;;;;;;;4948266;29;20420;-71
2023/11/12 11:32:54;;;;;;;6.27;3.23;;;;;;;;;;4948645;29;20931;-71
2023/11/12 11:35:21;;;;;;;8.13;3.23;;;;;;;;;;4946289;28;20487;-71
2023/11/12 11:38:06;;;;;;;6.67;4.00;;;;;;;;;;4949633;28;20505;-72
2023/11/12 11:40:33;;;;;;;6.77;2.90;;;;;;;;;;4950509;29;20943;-71
2023/11/12 11:43:17;;;;;;;8.43;3.97;;;;;;;;;;4952280;29;20468;-70
2023/11/12 11:46:03;;;;;;;5.43;3.27;;;;;;;;;;4952946;28;20503;-70
2023/11/12 11:48:29;;;;;;;9.13;5.00;;;;;;;;;;4947073;29;20956;-70
2023/11/12 11:50:57;;;;;;;9.10;4.93;;;;;;;;;;4954046;29;20920;-71
2023/11/12 11:53:26;;;;;;;8.20;3.70;;;;;;;;;;4953807;28;20982;-69
2023/11/12 11:55:56;;;;;;;6.60;3.90;;;;;;;;;;4953952;28;20429;-71
2023/11/12 11:58:23;;;;;;;7.50;3.90;;;;;;;;;;4954181;29;20600;-71
2023/11/12 12:01:01;;;;;;;7.80;3.93;;;;;;;;;;4953822;29;20441;-72
2023/11/12 12:03:27;;;;;;;6.27;4.10;;;;;;;;;;4953250;29;20515;-71
2023/11/12 12:05:53;;;;;;;7.97;3.50;;;;;;;;;;4950751;29;20410;-71
2023/11/12 12:08:19;;;;;;;11.87;4.47;;;;;;;;;;4938901;29;20487;-70
2023/11/12 12:10:45;;;;;;;7.33;3.73;;;;;;;;;;4953846;28;20413;-71
2023/11/12 12:13:12;;;;;;;7.20;3.80;;;;;;;;;;4953610;29;20428;-71
2023/11/12 12:15:38;;;;;;;6.90;3.97;;;;;;;;;;5126072;23;20507;-73
2023/11/12 12:18:23;;;;;;;7.30;4.13;;;;;;;;;;4972851;28;20906;-72
2023/11/12 12:20:51;;;;;;;7.93;3.60;;;;;;;;;;4971354;28;20420;-71
2023/11/12 12:23:17;;;;;;;5.80;3.73;;;;;;;;;;4971183;28;20479;-72
2023/11/12 12:25:50;;;;;;;8.03;3.33;;;;;;;;;;4972310;28;20432;-72
2023/11/12 12:28:20;;;;;;;5.27;3.63;;;;;;;;;;4975381;28;20408;-72
2023/11/12 12:30:51;;;;;;;6.57;3.53;;;;;;;;;;4976595;28;20495;-72
2023/11/12 12:33:17;;;;;;;5.53;3.50;;;;;;;;;;4966493;28;20420;-72
2023/11/12 12:35:43;;;;;;;5.03;3.60;;;;;;;;;;4974887;28;20446;-72
2023/11/12 12:38:09;;;;;;;5.30;3.13;;;;;;;;;;4965927;28;20516;-72
2023/11/12 12:40:37;;;;;;;3.37;3.13;;;;;;;;;;4966174;28;20526;-73
2023/11/12 12:43:06;;;;;;;7.40;4.03;;;;;;;;;;4958318;28;21006;-76
2023/11/12 12:45:34;;;;;;;16.10;7.40;;;;;;;;;;4963476;28;20436;-73
2023/11/12 12:48:10;;;;;;;6.33;4.00;;;;;;;;;;4961172;28;20444;-75
2023/11/12 12:50:36;;;;;;;5.97;3.63;;;;;;;;;;4961092;28;20426;-73
2023/11/12 12:53:17;;;;;;;6.83;3.50;;;;;;;;;;4974851;28;20420;-72
2023/11/12 12:55:44;;;;;;;9.30;4.30;;;;;;;;;;4966638;28;20478;-73
2023/11/12 12:58:11;;;;;;;5.00;2.90;;;;;;;;;;4979869;28;20412;-73
2023/11/12 13:00:38;;;;;;;4.53;3.20;;;;;;;;;;4977680;28;20511;-69
2023/11/12 13:03:14;;;;;;;5.73;3.40;;;;;;;;;;4976887;28;20467;-73
2023/11/12 13:05:46;;;;;;;6.70;4.00;;;;;;;;;;4972965;28;20438;-72
2023/11/12 13:08:13;;;;;;;5.10;3.07;;;;;;;;;;4971279;28;20416;-75
2023/11/12 13:10:40;;;;;;;7.23;4.10;;;;;;;;;;4966037;28;20511;-77
2023/11/12 13:13:06;;;;;;;6.63;3.33;;;;;;;;;;4956865;28;20511;-76
2023/11/12 13:15:32;;;;;;;8.43;3.80;;;;;;;;;;4962309;28;20518;-76
2023/11/12 13:17:57;;;;;;;8.33;3.83;;;;;;;;;;4976082;28;20416;-76
2023/11/12 13:20:25;;;;;;;4.23;2.93;;;;;;;;;;4975946;28;20498;-74
2023/11/12 13:22:51;;;;;;;7.77;4.40;;;;;;;;;;4976041;28;20517;-76
2023/11/12 13:25:17;;;;;;;6.60;3.80;;;;;;;;;;4975937;28;20432;-76
2023/11/12 13:27:49;;;;;;;5.53;3.27;;;;;;;;;;4976104;28;21114;-76
2023/11/12 13:30:16;;;;;;;9.00;3.00;;;;;;;;;;4962897;28;20781;-76
2023/11/12 13:32:42;;;;;;;5.37;3.60;;;;;;;;;;4968964;28;20424;-76
2023/11/12 13:35:09;;;;;;;5.20;3.30;;;;;;;;;;4974587;28;20431;-74
2023/11/12 13:37:35;;;;;;;5.20;3.40;;;;;;;;;;4976328;28;20408;-74
2023/11/12 13:40:13;;;;;;;11.07;4.60;;;;;;;;;;4974526;28;20503;-75
2023/11/12 13:42:41;;;;;;;4.80;3.47;;;;;;;;;;4975690;28;20430;-74
2023/11/12 13:45:09;;;;;;;7.43;3.50;;;;;;;;;;4975400;28;20910;-74
2023/11/12 13:47:35;;;;;;;3.93;2.50;;;;;;;;;;4975501;28;20744;-74
2023/11/12 13:50:01;;;;;;;3.47;2.63;;;;;;;;;;4974081;28;20435;-75
2023/11/12 13:52:27;;;;;;;4.53;2.80;;;;;;;;;;4975294;28;20978;-74
2023/11/12 13:54:53;;;;;;;4.80;3.17;;;;;;;;;;4975333;28;20427;-75
2023/11/12 13:57:20;;;;;;;5.53;2.87;;;;;;;;;;4969439;28;20817;-75
2023/11/12 13:59:46;;;;;;;6.43;3.70;;;;;;;;;;4955983;28;20496;-75
2023/11/12 14:02:12;;;;;;;8.47;4.00;;;;;;;;;;4955920;29;20967;-75
2023/11/12 14:04:38;;;;;;;6.50;3.10;;;;;;;;;;4955502;29;20511;-75
2023/11/12 14:07:05;;;;;;;10.87;3.10;;;;;;;;;;4955889;29;20761;-75
2023/11/12 14:09:33;;;;;;;4.20;3.00;;;;;;;;;;4954899;28;20483;-76
2023/11/12 14:12:00;;;;;;;5.33;2.50;;;;;;;;;;4955847;28;20416;-75
2023/11/12 14:14:27;;;;;;;3.47;2.27;;;;;;;;;;4955308;28;20456;-75
2023/11/12 14:16:55;;;;;;;3.20;2.40;;;;;;;;;;4955543;28;20475;-75
2023/11/12 14:19:24;;;;;;;4.57;2.37;;;;;;;;;;4955406;28;20416;-75
2023/11/12 14:21:50;;;;;;;8.73;3.57;;;;;;;;;;4955798;28;20441;-75
2023/11/12 14:24:16;;;;;;;5.30;3.10;;;;;;;;;;4954800;28;20801;-75
2023/11/12 14:26:43;;;;;;;7.17;3.77;;;;;;;;;;4957768;28;21018;-75
2023/11/12 14:29:10;;;;;;;8.77;2.97;;;;;;;;;;4974704;28;20412;-75
2023/11/12 14:31:38;;;;;;;6.37;4.23;;;;;;;;;;4974513;28;20416;-74
2023/11/12 14:34:11;;;;;;;13.73;6.17;;;;;;;;;;4974307;28;20514;-75
2023/11/12 14:36:37;;;;;;;14.17;5.77;;;;;;;;;;4974707;28;20427;-74
2023/11/12 14:39:08;;;;;;;28.37;11.80;;;;;;;;;;4974503;28;20416;-75
2023/11/12 14:41:34;;;;;;;25.10;11.13;;;;;;;;;;4974558;28;20424;-75
2023/11/12 14:44:01;;;;;;;16.20;7.80;;;;;;;;;;4973977;28;20566;-74
2023/11/12 14:46:28;;;;;;;13.33;7.00;;;;;;;;;;4971410;28;20488;-74
2023/11/12 14:48:54;;;;;;;13.23;6.57;;;;;;;;;;4955494;28;20416;-75
2023/11/12 14:51:19;;;;;;;10.03;5.37;;;;;;;;;;4954748;28;20412;-75
2023/11/12 14:53:47;;;;;;;12.50;5.77;;;;;;;;;;4954970;29;20776;-75
2023/11/12 14:56:15;;;;;;;15.00;6.80;;;;;;;;;;4955225;28;20484;-75
2023/11/12 14:58:41;;;;;;;16.47;8.03;;;;;;;;;;4955085;28;20515;-74
2023/11/12 15:01:08;;;;;;;18.50;7.93;;;;;;;;;;4954937;29;20501;-75
2023/11/12 15:03:35;;;;;;;17.03;6.73;;;;;;;;;;4954976;28;20456;-75
2023/11/12 15:06:01;;;;;;;10.97;3.63;;;;;;;;;;4954999;28;20436;-74
2023/11/12 15:08:28;;;;;;;4.53;3.27;;;;;;;;;;4955423;29;21027;-73
2023/11/12 15:10:54;;;;;;;5.33;3.17;;;;;;;;;;4955816;28;20939;-75
2023/11/12 15:13:21;;;;;;;4.50;3.10;;;;;;;;;;4955233;28;20507;-75
2023/11/12 15:15:47;;;;;;;4.40;3.10;;;;;;;;;;4954646;28;20456;-75
2023/11/12 15:18:14;;;;;;;5.37;3.37;;;;;;;;;;4954650;29;20425;-75
2023/11/12 15:20:40;;;;;;;4.43;3.33;;;;;;;;;;4954627;28;20431;-75
2023/11/12 15:23:06;;;;;;;4.33;2.70;;;;;;;;;;4956731;28;20464;-75
2023/11/12 15:25:34;;;;;;;4.00;2.10;;;;;;;;;;4954599;28;20463;-76
2023/11/12 15:28:00;;;;;;;4.50;2.20;;;;;;;;;;4972729;28;20444;-75
2023/11/12 15:30:26;;;;;;;2.60;2.00;;;;;;;;;;4973604;28;20403;-75
2023/11/12 15:32:52;;;;;;;2.70;2.23;;;;;;;;;;4973650;28;20914;-75
2023/11/12 15:35:18;;;;;;;2.17;2.00;;;;;;;;;;4973734;28;20431;-75
2023/11/12 15:37:45;;;;;;;3.07;2.07;;;;;;;;;;4973789;28;20911;-74
2023/11/12 15:40:17;;;;;;;4.67;2.60;;;;;;;;;;4973855;28;20888;-75
2023/11/12 15:42:43;;;;;;;8.87;4.63;;;;;;;;;;4973458;28;20491;-75
2023/11/12 15:45:10;;;;;;;11.83;4.43;;;;;;;;;;4972088;28;20456;-75
2023/11/12 15:47:37;;;;;;;20.87;8.40;;;;;;;;;;4954612;28;20942;-75
2023/11/12 15:50:04;;;;;;;26.23;8.13;;;;;;;;;;4954178;28;20830;-75
2023/11/12 15:52:30;;;;;;;13.73;5.60;;;;;;;;;;4954086;28;20425;-74
2023/11/12 15:54:58;;;;;;;12.73;5.10;;;;;;;;;;4954059;29;20443;-75
2023/11/12 15:57:24;;;;;;;11.27;4.40;;;;;;;;;;4953094;29;20436;-74
2023/11/12 15:59:51;;;;;;;10.07;4.47;;;;;;;;;;4956514;28;20417;-75
2023/11/12 16:02:17;;;;;;;6.20;3.80;;;;;;;;;;4954060;28;20427;-75
2023/11/12 16:04:43;;;;;;;5.10;3.60;;;;;;;;;;4954789;28;20480;-75
2023/11/12 16:07:09;;;;;;;6.10;3.00;;;;;;;;;;4952769;28;20480;-74
2023/11/12 16:09:34;;;;;;;4.43;2.73;;;;;;;;;;4954277;29;20956;-75
2023/11/12 16:12:01;;;;;;;11.23;4.40;;;;;;;;;;4954391;29;20409;-76
2023/11/12 16:14:27;;;;;;;13.07;4.33;;;;;;;;;;4971272;28;20946;-75
2023/11/12 16:16:53;;;;;;;5.93;3.30;;;;;;;;;;4973467;28;20431;-76
2023/11/12 16:19:19;;;;;;;8.70;3.60;;;;;;;;;;4972899;28;20439;-76
2023/11/12 16:21:46;;;;;;;5.47;3.07;;;;;;;;;;4974223;28;20423;-74
2023/11/12 16:24:12;;;;;;;2.17;1.70;;;;;;;;;;4963745;28;20975;-75
2023/11/12 16:26:38;;;;;;;5.03;1.73;;;;;;;;;;4953351;29;20924;-75
2023/11/12 16:29:04;;;;;;;2.90;1.90;;;;;;;;;;4953236;28;20431;-74
2023/11/12 16:31:30;;;;;;;2.67;2.17;;;;;;;;;;4953966;29;20413;-72
2023/11/12 16:33:57;;;;;;;2.40;1.37;;;;;;;;;;4959901;28;20516;-75
2023/11/12 16:36:23;;;;;;;2.97;1.30;;;;;;;;;;4963586;28;20963;-75
2023/11/12 16:38:49;;;;;;;4.00;2.23;;;;;;;;;;4962576;28;20439;-75
2023/11/12 16:41:15;;;;;;;3.67;2.17;;;;;;;;;;4967464;28;20815;-75
2023/11/12 16:43:41;;;;;;;15.13;1.50;;;;;;;;;;4963199;28;20507;-75
2023/11/12 16:46:08;;;;;;;2.27;2.03;;;;;;;;;;4960026;28;20793;-75
2023/11/12 16:48:34;;;;;;;3.27;2.03;;;;;;;;;;4961951;28;20429;-75
2023/11/12 16:51:01;;;;;;;2.00;1.60;;;;;;;;;;4972628;28;20415;-75
2023/11/12 16:53:27;;;;;;;3.93;2.00;;;;;;;;;;4973477;28;20435;-75
2023/11/12 16:55:54;;;;;;;1.90;1.80;;;;;;;;;;4958312;28;20695;-75
2023/11/12 16:58:20;;;;;;;1.30;1.20;;;;;;;;;;4970300;28;20423;-75
2023/11/12 17:00:46;;;;;;;2.07;1.63;;;;;;;;;;4958730;28;20427;-75
2023/11/12 17:03:12;;;;;;;2.93;1.90;;;;;;;;;;4962091;28;20871;-75
2023/11/12 17:05:38;;;;;;;1.50;1.40;;;;;;;;;;4967135;28;20463;-74
2023/11/12 17:08:05;;;;;;;2.53;1.80;;;;;;;;;;4956993;28;20460;-74
2023/11/12 17:10:32;;;;;;;3.20;1.87;;;;;;;;;;4968531;28;20416;-75
2023/11/12 17:12:58;;;;;;;2.70;1.80;;;;;;;;;;4956514;28;20424;-74
2023/11/12 17:15:23;;;;;;;2.50;1.77;;;;;;;;;;4961396;28;20459;-75
2023/11/12 17:17:49;;;;;;;2.20;1.97;;;;;;;;;;4967208;28;20412;-75
2023/11/12 17:20:15;;;;;;;3.40;2.50;;;;;;;;;;4965114;28;20430;-73
2023/11/12 17:23:00;;;;;;;2.40;2.20;;;;;;;;;;4964652;28;20994;-76
2023/11/12 17:25:27;;;;;;;1.90;1.70;;;;;;;;;;4974150;28;20436;-76
2023/11/12 17:27:53;;;;;;;3.77;2.60;;;;;;;;;;4976460;28;20412;-76
2023/11/12 17:30:20;;;;;;;1.60;1.50;;;;;;;;;;4976435;28;20443;-76
2023/11/12 17:32:46;;;;;;;4.73;2.07;;;;;;;;;;4980065;28;20542;-76
2023/11/12 17:35:14;;;;;;;3.10;1.90;;;;;;;;;;4982860;28;21233;-76
2023/11/12 17:37:40;;;;;;;2.30;1.87;;;;;;;;;;4983781;28;20408;-76
2023/11/12 17:40:07;;;;;;;7.43;2.20;;;;;;;;;;4968836;28;20428;-76
2023/11/12 17:42:34;;;;;;;2.80;1.90;;;;;;;;;;4963988;28;20413;-75
2023/11/12 17:45:03;;;;;;;2.73;1.90;;;;;;;;;;4961170;28;20435;-76
2023/11/12 17:47:29;;;;;;;4.70;1.70;;;;;;;;;;4962656;28;20415;-76
2023/11/12 17:49:57;;;;;;;6.03;2.17;;;;;;;;;;4974277;28;20428;-76
2023/11/12 17:52:24;;;;;;;4.20;3.00;;;;;;;;;;4975482;28;20962;-76
2023/11/12 17:54:50;;;;;;;2.73;2.30;;;;;;;;;;4975697;28;20486;-76
2023/11/12 17:57:16;;;;;;;3.10;2.00;;;;;;;;;;4974744;28;20447;-76
2023/11/12 17:59:43;;;;;;;2.80;1.93;;;;;;;;;;4974618;28;20500;-76
2023/11/12 18:02:09;;;;;;;4.50;2.20;;;;;;;;;;4974508;28;20414;-76
2023/11/12 18:04:35;;;;;;;2.33;1.70;;;;;;;;;;4974207;28;20915;-76
2023/11/12 18:07:02;;;;;;;2.13;1.97;;;;;;;;;;4969364;28;20420;-76
2023/11/12 18:09:28;;;;;;;3.40;2.20;;;;;;;;;;4972280;28;20809;-76
2023/11/12 18:11:54;;;;;;;3.00;2.43;;;;;;;;;;4975562;28;20420;-76
2023/11/12 18:14:20;;;;;;;2.70;2.20;;;;;;;;;;4975185;28;20474;-76
2023/11/12 18:16:46;;;;;;;3.13;2.20;;;;;;;;;;4974320;28;20436;-76
2023/11/12 18:19:13;;;;;;;3.67;2.13;;;;;;;;;;4974004;28;20419;-76
2023/11/12 18:21:41;;;;;;;7.63;3.20;;;;;;;;;;4975078;28;20887;-76
2023/11/12 18:24:08;;;;;;;7.70;3.97;;;;;;;;;;4974844;28;20814;-76
2023/11/12 18:26:35;;;;;;;6.03;3.33;;;;;;;;;;4974508;28;20411;-76
2023/11/12 18:29:03;;;;;;;5.77;3.80;;;;;;;;;;4975237;28;20412;-76
2023/11/12 18:31:29;;;;;;;4.43;3.23;;;;;;;;;;4974973;28;20408;-76
2023/11/12 18:33:55;;;;;;;9.03;3.87;;;;;;;;;;4973353;28;20475;-76
2023/11/12 18:36:21;;;;;;;7.67;4.27;;;;;;;;;;4968804;28;20465;-76
2023/11/12 18:38:47;;;;;;;8.10;4.60;;;;;;;;;;4955887;29;20416;-77
2023/11/12 18:41:14;;;;;;;3.70;3.47;;;;;;;;;;4955474;29;20417;-78
2023/11/12 18:43:40;;;;;;;6.27;3.60;;;;;;;;;;4955423;28;20488;-77
2023/11/12 18:46:07;;;;;;;6.70;3.60;;;;;;;;;;4956811;28;20468;-77
2023/11/12 18:48:33;;;;;;;6.23;4.30;;;;;;;;;;4954442;29;20916;-77
2023/11/12 18:50:59;;;;;;;6.50;4.17;;;;;;;;;;4955803;28;20412;-77
2023/11/12 18:53:25;;;;;;;7.10;5.00;;;;;;;;;;4955771;29;20421;-77
2023/11/12 18:55:51;;;;;;;9.53;5.90;;;;;;;;;;4956088;29;20531;-77
2023/11/12 18:58:17;;;;;;;8.57;5.13;;;;;;;;;;4964766;28;20572;-76
2023/11/12 19:00:43;;;;;;;9.87;4.50;;;;;;;;;;4968942;29;20893;-76
2023/11/12 19:03:10;;;;;;;13.40;5.47;;;;;;;;;;4968638;29;21002;-76
2023/11/12 19:05:36;;;;;;;6.17;4.90;;;;;;;;;;4966950;29;20470;-76
2023/11/12 19:08:03;;;;;;;9.10;6.10;;;;;;;;;;4956186;28;20420;-76
2023/11/12 19:10:29;;;;;;;7.80;5.07;;;;;;;;;;4974250;28;20438;-76
2023/11/12 19:12:56;;;;;;;9.90;6.37;;;;;;;;;;4966139;28;20421;-76
2023/11/12 19:15:23;;;;;;;8.90;5.17;;;;;;;;;;4954679;29;20452;-76
2023/11/12 19:17:49;;;;;;;6.90;5.20;;;;;;;;;;4954901;28;20412;-77
2023/11/12 19:20:15;;;;;;;8.30;5.57;;;;;;;;;;4954953;29;20420;-77
2023/11/12 19:22:42;;;;;;;8.07;5.60;;;;;;;;;;4954376;29;20405;-76
2023/11/12 19:25:10;;;;;;;12.60;7.37;;;;;;;;;;4953135;29;20445;-77
2023/11/12 19:27:38;;;;;;;14.77;7.50;;;;;;;;;;4952768;29;20559;-77
2023/11/12 19:30:06;;;;;;;8.90;6.13;;;;;;;;;;4953418;29;20507;-77
2023/11/12 19:32:32;;;;;;;6.57;4.83;;;;;;;;;;4954400;28;20424;-77
2023/11/12 19:34:58;;;;;;;8.00;5.20;;;;;;;;;;4954288;29;20440;-77
2023/11/12 19:37:25;;;;;;;8.73;4.80;;;;;;;;;;4969818;28;20476;-77
2023/11/12 19:39:52;;;;;;;9.40;5.90;;;;;;;;;;4972095;28;20431;-77
2023/11/12 19:42:18;;;;;;;6.00;4.07;;;;;;;;;;4973794;28;20776;-75
2023/11/12 19:44:44;;;;;;;6.80;4.60;;;;;;;;;;4970393;28;20474;-77
2023/11/12 19:47:10;;;;;;;9.73;4.30;;;;;;;;;;4972900;28;20416;-76
2023/11/12 19:49:37;;;;;;;7.40;5.53;;;;;;;;;;4973424;28;20408;-76
2023/11/12 19:52:06;;;;;;;9.13;5.20;;;;;;;;;;4973358;28;20419;-77
2023/11/12 19:54:32;;;;;;;9.30;6.13;;;;;;;;;;4973493;28;20804;-75
2023/11/12 19:57:01;;;;;;;11.47;7.37;;;;;;;;;;4972149;28;20423;-75
2023/11/12 19:59:28;;;;;;;9.93;7.80;;;;;;;;;;4973235;28;20492;-74
2023/11/12 20:01:54;;;;;;;11.00;6.40;;;;;;;;;;4973318;28;20420;-76
2023/11/12 20:04:23;;;;;;;11.83;6.63;;;;;;;;;;4972839;28;20856;-75
2023/11/12 20:06:49;;;;;;;15.90;7.10;;;;;;;;;;4972895;28;20412;-75
2023/11/12 20:09:20;;;;;;;11.67;7.50;;;;;;;;;;4953888;28;20413;-75
2023/11/12 20:11:48;;;;;;;9.90;6.83;;;;;;;;;;4953852;28;20456;-75
2023/11/12 20:14:15;;;;;;;11.57;7.57;;;;;;;;;;4952161;28;20449;-75
2023/11/12 20:16:44;;;;;;;10.63;6.40;;;;;;;;;;4953696;28;20762;-75
2023/11/12 20:19:11;;;;;;;10.40;6.83;;;;;;;;;;4954431;28;20769;-75
2023/11/12 20:21:40;;;;;;;15.10;8.27;;;;;;;;;;4953556;29;20471;-75
2023/11/12 20:24:11;;;;;;;11.90;8.30;;;;;;;;;;4952088;29;21003;-75
2023/11/12 20:26:41;;;;;;;13.67;8.30;;;;;;;;;;4952448;29;20413;-75
2023/11/12 20:29:07;;;;;;;13.20;7.50;;;;;;;;;;4953962;29;20409;-75
2023/11/12 20:31:33;;;;;;;13.47;7.93;;;;;;;;;;4959785;28;20424;-75
2023/11/12 20:33:59;;;;;;;13.67;9.03;;;;;;;;;;4972953;28;20416;-75
2023/11/12 20:36:25;;;;;;;15.53;7.70;;;;;;;;;;4972981;28;20431;-76
2023/11/12 20:38:51;;;;;;;13.23;7.77;;;;;;;;;;4972080;28;20429;-75
2023/11/12 20:41:17;;;;;;;13.97;9.30;;;;;;;;;;4968333;28;20423;-75